Time;durP1;ratioP1;P1;durP2;ratioP2;P2;SDS_P1;SDS_P2;PMS_P1;PMS_P2;Temp;Humidity;BMP_temperature;BMP_pressure;BME280_temperature;BME280_humidity;BME280_pressure;Samples;Min_cycle;Max_cycle;Signal;HPM_P1;HPM_P2
2023/01/23 00:02:20;;;;;;;22.77;11.17;;;;;;;;;;5050719;28;20280;-61
2023/01/23 00:04:46;;;;;;;27.53;13.00;;;;;;;;;;5051316;28;20052;-61
2023/01/23 00:07:12;;;;;;;25.43;11.87;;;;;;;;;;5050435;28;20049;-61
2023/01/23 00:09:38;;;;;;;21.97;11.53;;;;;;;;;;5051032;28;20041;-61
2023/01/23 00:12:05;;;;;;;29.80;13.70;;;;;;;;;;5049485;28;20375;-61
2023/01/23 00:14:31;;;;;;;20.17;11.73;;;;;;;;;;5050797;28;20095;-61
2023/01/23 00:16:57;;;;;;;27.97;12.43;;;;;;;;;;5049974;28;20821;-61
2023/01/23 00:19:22;;;;;;;29.23;11.63;;;;;;;;;;5068498;28;20329;-61
2023/01/23 00:21:48;;;;;;;23.93;11.13;;;;;;;;;;5068496;28;20119;-61
2023/01/23 00:24:15;;;;;;;24.47;12.07;;;;;;;;;;5070642;28;20127;-61
2023/01/23 00:26:41;;;;;;;24.13;11.50;;;;;;;;;;5070662;28;20459;-61
2023/01/23 00:29:07;;;;;;;19.83;11.37;;;;;;;;;;5070605;28;20045;-61
2023/01/23 00:31:34;;;;;;;23.33;12.83;;;;;;;;;;5070712;28;20044;-61
2023/01/23 00:34:02;;;;;;;19.13;11.27;;;;;;;;;;5053063;28;20335;-61
2023/01/23 00:36:29;;;;;;;24.43;11.40;;;;;;;;;;5050363;28;20381;-61
2023/01/23 00:38:55;;;;;;;22.60;11.17;;;;;;;;;;5049980;28;20053;-61
2023/01/23 00:41:21;;;;;;;30.83;12.03;;;;;;;;;;5050696;28;20124;-60
2023/01/23 00:43:50;;;;;;;28.53;12.77;;;;;;;;;;5049843;28;20052;-61
2023/01/23 00:46:16;;;;;;;25.20;11.37;;;;;;;;;;5050141;28;20120;-61
2023/01/23 00:48:42;;;;;;;22.83;11.77;;;;;;;;;;5050019;28;20095;-61
2023/01/23 00:51:09;;;;;;;22.77;13.00;;;;;;;;;;5049735;28;20724;-61
2023/01/23 00:53:35;;;;;;;26.17;13.57;;;;;;;;;;5049909;28;20124;-61
2023/01/23 00:56:01;;;;;;;23.10;11.60;;;;;;;;;;5049621;28;20626;-61
2023/01/23 00:58:27;;;;;;;19.00;11.23;;;;;;;;;;5049695;28;20816;-61
2023/01/23 01:00:53;;;;;;;23.30;12.07;;;;;;;;;;5060637;28;20326;-61
2023/01/23 01:03:19;;;;;;;22.27;12.50;;;;;;;;;;5069429;28;20139;-61
2023/01/23 01:05:45;;;;;;;25.23;12.53;;;;;;;;;;5068112;28;20041;-61
2023/01/23 01:08:12;;;;;;;26.17;12.03;;;;;;;;;;5069580;28;20048;-61
2023/01/23 01:10:41;;;;;;;25.50;12.20;;;;;;;;;;5069670;28;20045;-61
2023/01/23 01:13:08;;;;;;;24.60;12.33;;;;;;;;;;5069468;28;20283;-61
2023/01/23 01:15:35;;;;;;;21.37;11.50;;;;;;;;;;5069438;28;20051;-60
2023/01/23 01:18:01;;;;;;;38.83;14.50;;;;;;;;;;5068103;28;20383;-61
2023/01/23 01:20:28;;;;;;;25.50;13.23;;;;;;;;;;5050000;28;20049;-61
2023/01/23 01:22:54;;;;;;;25.40;12.97;;;;;;;;;;5049696;28;20048;-61
2023/01/23 01:25:21;;;;;;;25.07;12.70;;;;;;;;;;5049473;28;20041;-61
2023/01/23 01:27:47;;;;;;;25.73;11.90;;;;;;;;;;5057647;28;20330;-61
2023/01/23 01:30:13;;;;;;;28.60;12.40;;;;;;;;;;5060991;28;20349;-61
2023/01/23 01:32:40;;;;;;;37.07;13.67;;;;;;;;;;5049092;28;20471;-61
2023/01/23 01:35:07;;;;;;;31.80;13.07;;;;;;;;;;5049188;28;20041;-60
2023/01/23 01:37:33;;;;;;;29.97;13.60;;;;;;;;;;5048978;28;20495;-61
2023/01/23 01:40:00;;;;;;;31.00;13.93;;;;;;;;;;5048918;28;20533;-61
2023/01/23 01:42:27;;;;;;;30.43;12.97;;;;;;;;;;5048947;28;20492;-61
2023/01/23 01:44:57;;;;;;;28.00;13.07;;;;;;;;;;5049170;28;20302;-61
2023/01/23 01:47:23;;;;;;;33.07;14.07;;;;;;;;;;5048852;28;20060;-61
2023/01/23 01:49:49;;;;;;;24.83;12.30;;;;;;;;;;5048276;28;20135;-61
2023/01/23 01:52:16;;;;;;;31.03;14.57;;;;;;;;;;5049129;28;20053;-61
2023/01/23 01:54:43;;;;;;;23.97;12.07;;;;;;;;;;5049161;28;20048;-61
2023/01/23 01:57:13;;;;;;;32.70;14.30;;;;;;;;;;5048743;28;20049;-60
2023/01/23 01:59:48;;;;;;;29.30;12.83;;;;;;;;;;5048278;28;20032;-61
2023/01/23 02:02:17;;;;;;;28.40;12.73;;;;;;;;;;5058202;28;20143;-60
2023/01/23 02:04:47;;;;;;;29.83;13.73;;;;;;;;;;5068648;28;20040;-60
2023/01/23 02:07:17;;;;;;;31.10;14.07;;;;;;;;;;5069098;28;20044;-60
2023/01/23 02:09:44;;;;;;;25.93;12.90;;;;;;;;;;5068712;28;20040;-61
2023/01/23 02:12:10;;;;;;;31.53;14.40;;;;;;;;;;5068681;28;20040;-61
2023/01/23 02:14:36;;;;;;;26.63;12.90;;;;;;;;;;5059295;28;20724;-60
2023/01/23 02:17:02;;;;;;;24.47;13.70;;;;;;;;;;5048870;28;21045;-61
2023/01/23 02:19:43;;;;;;;23.77;12.93;;;;;;;;;;5048191;28;20037;-61
2023/01/23 02:22:21;;;;;;;28.27;15.40;;;;;;;;;;5048063;28;20147;-61
2023/01/23 02:24:56;;;;;;;28.30;14.57;;;;;;;;;;5048925;28;20041;-61
2023/01/23 02:27:22;;;;;;;24.20;13.57;;;;;;;;;;5048718;28;20049;-61
2023/01/23 02:29:50;;;;;;;25.90;13.07;;;;;;;;;;5048609;28;20309;-60
2023/01/23 02:32:18;;;;;;;30.10;14.30;;;;;;;;;;5048090;28;20045;-61
2023/01/23 02:34:45;;;;;;;27.20;14.63;;;;;;;;;;5067613;28;20295;-61
2023/01/23 02:37:13;;;;;;;28.50;13.83;;;;;;;;;;5064767;28;20048;-61
2023/01/23 02:39:39;;;;;;;29.27;14.73;;;;;;;;;;5059479;28;20391;-60
2023/01/23 02:42:06;;;;;;;31.37;14.33;;;;;;;;;;5061341;28;20503;-61
2023/01/23 02:44:32;;;;;;;32.00;14.37;;;;;;;;;;5046945;28;20073;-61
2023/01/23 02:46:59;;;;;;;34.60;15.00;;;;;;;;;;5048430;28;20045;-61
2023/01/23 02:49:26;;;;;;;33.20;14.50;;;;;;;;;;5046856;28;20060;-61
2023/01/23 02:51:53;;;;;;;34.53;14.87;;;;;;;;;;5049091;28;20102;-60
2023/01/23 02:54:19;;;;;;;30.37;14.37;;;;;;;;;;5047666;28;20044;-60
2023/01/23 02:56:45;;;;;;;28.70;15.37;;;;;;;;;;5048370;28;20312;-60
2023/01/23 03:01:56;;;;;;;32.47;15.77;;;;;;;;;;5047690;28;20098;-61
2023/01/23 03:04:22;;;;;;;25.20;13.90;;;;;;;;;;5047717;28;20049;-60
2023/01/23 03:06:48;;;;;;;27.73;15.23;;;;;;;;;;5048373;28;20095;-61
2023/01/23 03:09:16;;;;;;;29.83;15.80;;;;;;;;;;5048588;28;20041;-60
2023/01/23 03:11:43;;;;;;;30.03;15.37;;;;;;;;;;5051287;28;20036;-61
2023/01/23 03:14:28;;;;;;;29.57;15.47;;;;;;;;;;5067960;28;20524;-60
2023/01/23 03:16:54;;;;;;;30.17;15.07;;;;;;;;;;5058785;28;20111;-60
2023/01/23 03:19:22;;;;;;;27.37;14.17;;;;;;;;;;5048109;28;20060;-60
2023/01/23 03:21:48;;;;;;;26.73;15.43;;;;;;;;;;5048271;28;20291;-61
2023/01/23 03:24:15;;;;;;;38.10;15.80;;;;;;;;;;5047577;28;20063;-60
2023/01/23 03:26:41;;;;;;;31.13;15.40;;;;;;;;;;5052691;28;20094;-60
2023/01/23 03:31:54;;;;;;;30.07;15.43;;;;;;;;;;5068456;28;20131;-60
2023/01/23 03:34:21;;;;;;;30.17;14.63;;;;;;;;;;5070955;28;20284;-61
2023/01/23 03:36:47;;;;;;;34.33;15.80;;;;;;;;;;5071616;28;20084;-61
2023/01/23 03:41:57;;;;;;;28.47;14.93;;;;;;;;;;5061509;28;20041;-60
2023/01/23 03:44:23;;;;;;;26.10;15.03;;;;;;;;;;5051006;28;20476;-60
2023/01/23 03:46:50;;;;;;;31.90;15.40;;;;;;;;;;5052634;28;20037;-60
2023/01/23 03:49:16;;;;;;;28.23;14.13;;;;;;;;;;5070703;28;20052;-61
2023/01/23 03:51:43;;;;;;;31.17;15.40;;;;;;;;;;5054542;28;20048;-60
2023/01/23 03:54:09;;;;;;;27.57;15.00;;;;;;;;;;5051291;28;20292;-61
2023/01/23 03:56:35;;;;;;;29.13;14.70;;;;;;;;;;5059319;28;20127;-61
2023/01/23 03:59:01;;;;;;;27.87;14.60;;;;;;;;;;5070638;28;20076;-61
2023/01/23 04:01:27;;;;;;;35.50;16.80;;;;;;;;;;5070055;28;20299;-60
2023/01/23 04:03:53;;;;;;;27.97;16.27;;;;;;;;;;5071108;28;20045;-60
2023/01/23 04:06:19;;;;;;;27.03;15.40;;;;;;;;;;5070992;28;20048;-61
2023/01/23 04:08:45;;;;;;;35.13;15.93;;;;;;;;;;5070533;28;20040;-60
2023/01/23 04:11:12;;;;;;;28.73;15.40;;;;;;;;;;5070204;28;20047;-61
2023/01/23 04:13:38;;;;;;;29.77;15.57;;;;;;;;;;5070841;28;20476;-60
2023/01/23 04:16:06;;;;;;;33.37;17.03;;;;;;;;;;5065161;28;20814;-60
2023/01/23 04:18:32;;;;;;;27.13;14.77;;;;;;;;;;5049923;28;20040;-60
2023/01/23 04:20:58;;;;;;;35.20;16.17;;;;;;;;;;5049707;28;20052;-61
2023/01/23 04:23:25;;;;;;;35.70;17.37;;;;;;;;;;5050808;28;20081;-60
2023/01/23 04:25:51;;;;;;;27.40;15.50;;;;;;;;;;5056383;28;20090;-60
2023/01/23 04:28:17;;;;;;;31.77;16.17;;;;;;;;;;5054445;28;20048;-61
2023/01/23 04:30:44;;;;;;;30.23;16.03;;;;;;;;;;5049975;28;20079;-61
2023/01/23 04:33:10;;;;;;;26.87;15.93;;;;;;;;;;5050205;28;20041;-61
2023/01/23 04:35:36;;;;;;;35.07;17.93;;;;;;;;;;5050421;28;20067;-60
2023/01/23 04:38:02;;;;;;;30.73;15.07;;;;;;;;;;5050416;28;20092;-61
2023/01/23 04:40:28;;;;;;;31.37;16.27;;;;;;;;;;5062713;28;20076;-61
2023/01/23 04:42:54;;;;;;;30.57;15.50;;;;;;;;;;5069379;28;20068;-61
2023/01/23 04:45:20;;;;;;;27.83;15.33;;;;;;;;;;5070177;28;20114;-61
2023/01/23 04:47:46;;;;;;;34.37;16.73;;;;;;;;;;5067862;28;20091;-61
2023/01/23 04:50:12;;;;;;;32.77;16.03;;;;;;;;;;5069832;28;20045;-61
2023/01/23 04:52:38;;;;;;;31.97;17.20;;;;;;;;;;5070092;28;20160;-61
2023/01/23 04:55:05;;;;;;;31.27;15.70;;;;;;;;;;5057926;28;20404;-61
2023/01/23 04:57:32;;;;;;;34.47;15.87;;;;;;;;;;5049988;28;20076;-61
2023/01/23 04:59:58;;;;;;;31.83;15.53;;;;;;;;;;5049794;28;20084;-61
2023/01/23 05:02:24;;;;;;;29.20;14.90;;;;;;;;;;5048286;28;20738;-61
2023/01/23 05:04:50;;;;;;;38.43;16.90;;;;;;;;;;5049895;28;20099;-61
2023/01/23 05:07:16;;;;;;;30.63;15.00;;;;;;;;;;5050072;28;20041;-61
2023/01/23 05:09:42;;;;;;;33.20;16.73;;;;;;;;;;5049753;28;20041;-60
2023/01/23 05:12:08;;;;;;;25.53;15.77;;;;;;;;;;5049410;28;20056;-60
2023/01/23 05:14:34;;;;;;;31.20;16.43;;;;;;;;;;5066605;28;20048;-60
2023/01/23 05:17:00;;;;;;;31.63;16.23;;;;;;;;;;5055457;28;20439;-60
2023/01/23 05:19:26;;;;;;;36.73;16.60;;;;;;;;;;5048778;28;20044;-60
2023/01/23 05:21:52;;;;;;;33.97;16.60;;;;;;;;;;5049240;28;20106;-60
2023/01/23 05:24:18;;;;;;;27.40;17.03;;;;;;;;;;5065749;28;20383;-61
2023/01/23 05:26:44;;;;;;;28.27;15.00;;;;;;;;;;5069239;28;20102;-61
2023/01/23 05:29:10;;;;;;;31.33;16.70;;;;;;;;;;5068605;28;20049;-61
2023/01/23 05:31:36;;;;;;;29.47;15.57;;;;;;;;;;5069189;28;20514;-61
2023/01/23 05:34:02;;;;;;;33.50;17.40;;;;;;;;;;5068912;28;20040;-61
2023/01/23 05:36:28;;;;;;;34.50;16.30;;;;;;;;;;5069085;28;20041;-61
2023/01/23 05:38:55;;;;;;;29.03;16.10;;;;;;;;;;5054496;28;20045;-61
2023/01/23 05:41:21;;;;;;;34.10;16.50;;;;;;;;;;5048810;28;20075;-61
2023/01/23 05:43:48;;;;;;;32.37;16.23;;;;;;;;;;5048346;28;20047;-61
2023/01/23 05:46:15;;;;;;;30.87;16.73;;;;;;;;;;5048063;28;20053;-61
2023/01/23 05:48:41;;;;;;;28.90;16.57;;;;;;;;;;5049163;28;20179;-61
2023/01/23 05:51:07;;;;;;;30.10;14.80;;;;;;;;;;5051928;28;20090;-61
2023/01/23 05:53:33;;;;;;;33.67;16.67;;;;;;;;;;5068688;28;20036;-61
2023/01/23 05:55:59;;;;;;;29.67;16.90;;;;;;;;;;5067482;28;20411;-60
2023/01/23 05:58:25;;;;;;;30.23;15.77;;;;;;;;;;5068448;28;20040;-61
2023/01/23 06:00:51;;;;;;;31.67;14.80;;;;;;;;;;5066950;28;20049;-61
2023/01/23 06:03:17;;;;;;;31.77;15.40;;;;;;;;;;5054030;28;20106;-60
2023/01/23 06:05:43;;;;;;;36.10;16.40;;;;;;;;;;5057405;28;20171;-61
2023/01/23 06:08:10;;;;;;;36.10;15.93;;;;;;;;;;5066187;28;20139;-61
2023/01/23 06:10:37;;;;;;;31.13;16.77;;;;;;;;;;5061175;28;20036;-61
2023/01/23 06:13:03;;;;;;;30.90;16.83;;;;;;;;;;5046505;28;20135;-61
2023/01/23 06:15:29;;;;;;;39.30;15.87;;;;;;;;;;5047314;28;20128;-61
2023/01/23 06:17:55;;;;;;;30.30;16.03;;;;;;;;;;5048444;28;20049;-61
2023/01/23 06:20:21;;;;;;;36.37;16.73;;;;;;;;;;5048200;28;20052;-61
2023/01/23 06:22:47;;;;;;;29.43;15.60;;;;;;;;;;5048216;28;20419;-60
2023/01/23 06:25:13;;;;;;;32.40;16.83;;;;;;;;;;5048202;28;20044;-61
2023/01/23 06:27:39;;;;;;;27.50;15.57;;;;;;;;;;5062246;28;20040;-60
2023/01/23 06:30:06;;;;;;;25.30;15.03;;;;;;;;;;5052890;28;20095;-61
2023/01/23 06:32:32;;;;;;;30.97;16.50;;;;;;;;;;5047765;28;20491;-61
2023/01/23 06:34:58;;;;;;;32.43;16.23;;;;;;;;;;5067550;28;20037;-61
2023/01/23 06:37:24;;;;;;;33.10;17.37;;;;;;;;;;5068186;28;20113;-61
2023/01/23 06:39:50;;;;;;;29.37;16.37;;;;;;;;;;5068257;28;20045;-61
2023/01/23 06:42:16;;;;;;;25.87;15.97;;;;;;;;;;5068263;28;20084;-61
2023/01/23 06:44:42;;;;;;;33.57;16.83;;;;;;;;;;5058487;28;20087;-61
2023/01/23 06:47:08;;;;;;;26.53;15.47;;;;;;;;;;5047024;28;20053;-61
2023/01/23 06:49:34;;;;;;;28.80;16.30;;;;;;;;;;5047995;28;20045;-61
2023/01/23 06:52:00;;;;;;;35.33;17.50;;;;;;;;;;5047502;28;20045;-61
2023/01/23 06:54:26;;;;;;;31.03;16.57;;;;;;;;;;5047877;28;20677;-61
2023/01/23 06:56:52;;;;;;;33.17;17.03;;;;;;;;;;5048146;28;20098;-61
2023/01/23 06:59:18;;;;;;;29.30;16.67;;;;;;;;;;5060107;28;20838;-61
2023/01/23 07:01:44;;;;;;;30.90;17.33;;;;;;;;;;5052840;28;20135;-61
2023/01/23 07:04:10;;;;;;;45.87;19.20;;;;;;;;;;5047752;28;20151;-61
2023/01/23 07:06:36;;;;;;;30.57;16.37;;;;;;;;;;5049147;28;20045;-61
2023/01/23 07:09:03;;;;;;;28.87;16.97;;;;;;;;;;5051552;28;20083;-61
2023/01/23 07:11:29;;;;;;;33.70;16.10;;;;;;;;;;5051438;28;20507;-61
2023/01/23 07:13:55;;;;;;;33.10;17.83;;;;;;;;;;5051296;28;20295;-61
2023/01/23 07:16:21;;;;;;;33.37;17.33;;;;;;;;;;5051631;28;20107;-61
2023/01/23 07:18:47;;;;;;;39.80;19.40;;;;;;;;;;5051298;28;20049;-61
2023/01/23 07:21:13;;;;;;;34.23;17.57;;;;;;;;;;5051844;28;20045;-61
2023/01/23 07:23:39;;;;;;;31.63;16.90;;;;;;;;;;5050044;28;20123;-61
2023/01/23 07:26:09;;;;;;;38.23;19.13;;;;;;;;;;5050246;28;20041;-61
2023/01/23 07:28:35;;;;;;;33.63;16.53;;;;;;;;;;5053312;28;20095;-61
2023/01/23 07:31:02;;;;;;;41.00;17.57;;;;;;;;;;5065902;28;20040;-61
2023/01/23 07:33:28;;;;;;;146.67;25.93;;;;;;;;;;5071376;28;20048;-61
2023/01/23 07:35:54;;;;;;;37.50;16.90;;;;;;;;;;5062861;28;20341;-61
2023/01/23 07:38:22;;;;;;;34.37;18.03;;;;;;;;;;5051260;28;20307;-61
2023/01/23 07:40:48;;;;;;;35.23;17.57;;;;;;;;;;5052467;28;20627;-61
2023/01/23 07:43:14;;;;;;;43.27;19.63;;;;;;;;;;5069142;28;20040;-61
2023/01/23 07:45:40;;;;;;;57.67;22.43;;;;;;;;;;5056457;28;20102;-61
2023/01/23 07:48:06;;;;;;;35.23;17.93;;;;;;;;;;5069300;28;20461;-61
2023/01/23 07:50:34;;;;;;;34.43;17.30;;;;;;;;;;5061099;28;20742;-61
2023/01/23 07:53:00;;;;;;;36.23;18.97;;;;;;;;;;5050554;28;20049;-60
2023/01/23 07:55:26;;;;;;;39.03;18.10;;;;;;;;;;5056950;28;20052;-61
2023/01/23 07:57:52;;;;;;;41.57;18.13;;;;;;;;;;5067570;28;20091;-61
2023/01/23 08:00:18;;;;;;;39.63;18.73;;;;;;;;;;5050671;28;20094;-61
2023/01/23 08:02:44;;;;;;;32.37;17.87;;;;;;;;;;5068706;28;20109;-61
2023/01/23 08:05:10;;;;;;;32.63;17.30;;;;;;;;;;5066292;28;20048;-61
2023/01/23 08:07:36;;;;;;;36.87;17.67;;;;;;;;;;5049614;28;20049;-61
2023/01/23 08:10:02;;;;;;;35.17;18.37;;;;;;;;;;5062411;28;20071;-61
2023/01/23 08:12:28;;;;;;;42.20;18.60;;;;;;;;;;5050714;28;20102;-61
2023/01/23 08:14:54;;;;;;;30.03;16.60;;;;;;;;;;5052140;28;20437;-60
2023/01/23 08:17:20;;;;;;;30.63;17.07;;;;;;;;;;5049766;28;20045;-61
2023/01/23 08:19:46;;;;;;;28.57;17.37;;;;;;;;;;5049466;28;20037;-61
2023/01/23 08:22:12;;;;;;;31.67;17.57;;;;;;;;;;5049780;28;20044;-61
2023/01/23 08:24:38;;;;;;;30.43;16.40;;;;;;;;;;5050058;28;20534;-61
2023/01/23 08:27:05;;;;;;;29.17;16.33;;;;;;;;;;5048056;28;20144;-61
2023/01/23 08:29:31;;;;;;;27.70;15.70;;;;;;;;;;5048596;28;20049;-61
2023/01/23 08:31:57;;;;;;;27.33;16.47;;;;;;;;;;5049644;28;20048;-61
2023/01/23 08:34:23;;;;;;;34.00;17.53;;;;;;;;;;5058195;28;20131;-61
2023/01/23 08:36:49;;;;;;;27.67;15.63;;;;;;;;;;5056130;28;20041;-61
2023/01/23 08:39:16;;;;;;;26.17;15.57;;;;;;;;;;5058778;28;20084;-60
2023/01/23 08:41:42;;;;;;;31.20;16.67;;;;;;;;;;5061799;28;20045;-60
2023/01/23 08:44:08;;;;;;;31.67;17.70;;;;;;;;;;5058498;28;20045;-60
2023/01/23 08:46:34;;;;;;;28.17;16.73;;;;;;;;;;5061682;28;20405;-61
2023/01/23 08:49:00;;;;;;;28.13;16.67;;;;;;;;;;5055970;28;20049;-62
2023/01/23 08:51:26;;;;;;;28.70;16.50;;;;;;;;;;5057655;28;20049;-61
2023/01/23 08:53:53;;;;;;;30.07;15.60;;;;;;;;;;5055753;28;20127;-61
2023/01/23 08:56:20;;;;;;;119.13;21.40;;;;;;;;;;5061559;28;20083;-62
2023/01/23 08:58:46;;;;;;;23.43;15.50;;;;;;;;;;5054428;28;20040;-61
2023/01/23 09:01:13;;;;;;;23.97;16.20;;;;;;;;;;5059242;28;20568;-61
2023/01/23 09:03:39;;;;;;;33.50;14.97;;;;;;;;;;5059809;28;20405;-61
2023/01/23 09:06:05;;;;;;;26.10;14.97;;;;;;;;;;5059729;28;20326;-61
2023/01/23 09:08:32;;;;;;;24.23;15.03;;;;;;;;;;5054287;28;20152;-61
2023/01/23 09:11:01;;;;;;;23.77;14.03;;;;;;;;;;5048813;28;20056;-61
2023/01/23 09:13:27;;;;;;;23.97;13.97;;;;;;;;;;5048960;28;20048;-61
2023/01/23 09:15:53;;;;;;;25.13;14.17;;;;;;;;;;5048666;28;20523;-61
2023/01/23 09:18:21;;;;;;;21.60;14.00;;;;;;;;;;5048809;28;20049;-61
2023/01/23 09:20:48;;;;;;;23.27;14.93;;;;;;;;;;5048089;28;20454;-61
2023/01/23 09:23:14;;;;;;;19.70;13.13;;;;;;;;;;5048687;28;20120;-61
2023/01/23 09:25:40;;;;;;;19.57;12.50;;;;;;;;;;5047556;28;20051;-61
2023/01/23 09:28:06;;;;;;;26.93;13.93;;;;;;;;;;5048265;28;20091;-61
2023/01/23 09:30:33;;;;;;;20.30;12.57;;;;;;;;;;5046895;28;20049;-62
2023/01/23 09:32:59;;;;;;;24.33;13.47;;;;;;;;;;5048022;28;20045;-62
2023/01/23 09:35:25;;;;;;;18.20;11.53;;;;;;;;;;5048235;28;20052;-61
2023/01/23 09:38:00;;;;;;;20.13;12.07;;;;;;;;;;5048178;28;20052;-62
2023/01/23 09:40:27;;;;;;;19.00;11.80;;;;;;;;;;5048018;28;20132;-61
2023/01/23 09:42:55;;;;;;;20.67;11.87;;;;;;;;;;5047948;28;20045;-62
2023/01/23 09:45:23;;;;;;;18.40;13.13;;;;;;;;;;5048358;28;20135;-62
2023/01/23 09:47:56;;;;;;;20.10;13.63;;;;;;;;;;5048126;28;20056;-62
2023/01/23 09:50:30;;;;;;;18.30;12.02;;;;;;;;;;5047858;28;20057;-61
2023/01/23 09:53:01;;;;;;;18.47;12.17;;;;;;;;;;5048061;28;20045;-61
2023/01/23 09:55:30;;;;;;;17.67;11.50;;;;;;;;;;5048331;28;20049;-61
2023/01/23 09:57:56;;;;;;;20.77;13.23;;;;;;;;;;5047745;28;20049;-61
2023/01/23 10:00:28;;;;;;;16.63;11.33;;;;;;;;;;5046560;28;20049;-61
2023/01/23 10:02:55;;;;;;;16.80;12.20;;;;;;;;;;5047912;28;20415;-61
2023/01/23 10:05:33;;;;;;;15.53;12.00;;;;;;;;;;5047475;28;20045;-62
2023/01/23 10:07:59;;;;;;;20.43;12.73;;;;;;;;;;5047854;28;20322;-62
2023/01/23 10:10:44;;;;;;;15.90;11.10;;;;;;;;;;5047761;28;20041;-61
2023/01/23 10:13:14;;;;;;;19.43;11.47;;;;;;;;;;5047761;28;20078;-62
2023/01/23 10:15:46;;;;;;;18.63;11.77;;;;;;;;;;5047207;28;20503;-61
2023/01/23 10:18:38;;;;;;;18.67;11.90;;;;;;;;;;5047827;28;20051;-61
2023/01/23 10:21:04;;;;;;;17.13;11.90;;;;;;;;;;5045745;28;20534;-61
2023/01/23 10:23:49;;;;;;;16.17;10.83;;;;;;;;;;5047968;28;20044;-61
2023/01/23 10:26:18;;;;;;;19.20;10.10;;;;;;;;;;5047519;28;20133;-61
2023/01/23 10:28:46;;;;;;;17.37;11.20;;;;;;;;;;5047467;28;20037;-61
2023/01/23 10:31:35;;;;;;;16.30;10.03;;;;;;;;;;5047437;28;20071;-62
2023/01/23 10:34:10;;;;;;;16.03;10.10;;;;;;;;;;5042087;28;20418;-61
2023/01/23 10:36:36;;;;;;;13.83;9.43;;;;;;;;;;5047683;28;20098;-61
2023/01/23 10:39:05;;;;;;;15.13;11.80;;;;;;;;;;5047571;28;20048;-61
2023/01/23 10:41:32;;;;;;;13.90;8.97;;;;;;;;;;5047684;28;20071;-61
2023/01/23 10:43:59;;;;;;;14.03;10.73;;;;;;;;;;5051153;28;20386;-61
2023/01/23 10:46:34;;;;;;;14.83;9.60;;;;;;;;;;5051644;28;20040;-61
2023/01/23 10:49:01;;;;;;;18.70;10.77;;;;;;;;;;5051374;28;20104;-61
2023/01/23 10:51:29;;;;;;;14.27;8.40;;;;;;;;;;5050410;28;20135;-61
2023/01/23 10:54:05;;;;;;;11.50;8.37;;;;;;;;;;5050957;28;20422;-61
2023/01/23 10:56:35;;;;;;;12.83;8.53;;;;;;;;;;5051387;28;20045;-61
2023/01/23 10:59:02;;;;;;;12.77;8.77;;;;;;;;;;5051224;28;20423;-61
2023/01/23 11:01:32;;;;;;;14.47;8.30;;;;;;;;;;5051436;28;20080;-62
2023/01/23 11:04:16;;;;;;;11.10;7.63;;;;;;;;;;5051257;28;20048;-62
2023/01/23 11:06:42;;;;;;;13.67;8.77;;;;;;;;;;5049465;28;20455;-61
2023/01/23 11:09:18;;;;;;;15.40;8.53;;;;;;;;;;5051421;28;20099;-62
2023/01/23 11:11:44;;;;;;;12.77;8.80;;;;;;;;;;5050298;28;20049;-61
2023/01/23 11:14:11;;;;;;;11.90;8.67;;;;;;;;;;5049568;28;20045;-61
2023/01/23 11:16:38;;;;;;;12.97;8.17;;;;;;;;;;5051151;28;20091;-62
2023/01/23 11:19:06;;;;;;;14.07;9.00;;;;;;;;;;5051199;28;20386;-61
2023/01/23 11:21:34;;;;;;;12.60;8.27;;;;;;;;;;5051531;28;20110;-61
2023/01/23 11:24:15;;;;;;;14.60;8.00;;;;;;;;;;5050847;28;20055;-61
2023/01/23 11:26:41;;;;;;;10.10;7.37;;;;;;;;;;5050592;28;20498;-61
2023/01/23 11:29:20;;;;;;;12.57;7.63;;;;;;;;;;5050675;28;20075;-61
2023/01/23 11:31:47;;;;;;;12.00;8.40;;;;;;;;;;5050855;28;20499;-61
2023/01/23 11:34:15;;;;;;;11.00;7.63;;;;;;;;;;5050660;28;20040;-61
2023/01/23 11:36:53;;;;;;;11.07;7.40;;;;;;;;;;5050710;28;20515;-61
2023/01/23 11:39:38;;;;;;;10.50;7.00;;;;;;;;;;5050212;28;20041;-61
2023/01/23 11:42:04;;;;;;;9.97;6.90;;;;;;;;;;5050849;28;20045;-62
2023/01/23 11:44:31;;;;;;;8.97;6.80;;;;;;;;;;5050555;28;20056;-61
2023/01/23 11:47:00;;;;;;;10.97;6.60;;;;;;;;;;5069326;28;20509;-61
2023/01/23 11:49:29;;;;;;;10.40;7.00;;;;;;;;;;5067136;28;20175;-61
2023/01/23 11:52:14;;;;;;;8.97;6.00;;;;;;;;;;5061938;28;20111;-61
2023/01/23 11:54:40;;;;;;;9.37;6.33;;;;;;;;;;5049295;28;20063;-61
2023/01/23 11:57:17;;;;;;;8.20;5.57;;;;;;;;;;5064234;28;20083;-61
2023/01/23 12:00:00;;;;;;;9.90;6.77;;;;;;;;;;5063848;28;20052;-61
2023/01/23 12:02:45;;;;;;;13.18;7.97;;;;;;;;;;5050804;28;20053;-61
2023/01/23 12:05:31;;;;;;;11.80;6.47;;;;;;;;;;5059210;28;20048;-61
2023/01/23 12:08:05;;;;;;;9.97;6.60;;;;;;;;;;5070047;28;20045;-61
2023/01/23 12:10:31;;;;;;;;;;;;;;;;;;5071192;28;20045;-61
2023/01/23 12:12:57;;;;;;;10.23;6.33;;;;;;;;;;5061516;28;19978;-61
2023/01/23 12:15:26;;;;;;;7.27;5.57;;;;;;;;;;5057578;28;20044;-61
2023/01/23 12:18:01;;;;;;;9.17;6.43;;;;;;;;;;5061460;28;20099;-61
2023/01/23 12:20:27;;;;;;;8.27;6.03;;;;;;;;;;5050297;28;20084;-61
2023/01/23 12:22:56;;;;;;;10.63;6.00;;;;;;;;;;5069789;28;20145;-61
2023/01/23 12:25:30;;;;;;;9.93;7.17;;;;;;;;;;5068325;28;20057;-61
2023/01/23 12:28:01;;;;;;;9.00;5.60;;;;;;;;;;5065419;28;20498;-61
2023/01/23 12:30:27;;;;;;;8.00;5.73;;;;;;;;;;5054771;28;20040;-61
2023/01/23 12:32:53;;;;;;;7.90;5.63;;;;;;;;;;5068948;28;20041;-62
2023/01/23 12:35:29;;;;;;;8.03;6.10;;;;;;;;;;5069603;28;20056;-61
2023/01/23 12:38:22;;;;;;;8.33;6.50;;;;;;;;;;5066906;28;20041;-61
2023/01/23 12:40:52;;;;;;;9.30;7.13;;;;;;;;;;5069129;28;20391;-61
2023/01/23 12:43:23;;;;;;;10.23;6.43;;;;;;;;;;5069115;28;20529;-61
2023/01/23 12:45:52;;;;;;;7.77;6.23;;;;;;;;;;5068024;28;20415;-61
2023/01/23 12:48:26;;;;;;;10.53;6.70;;;;;;;;;;5062828;28;20098;-62
2023/01/23 12:51:05;;;;;;;8.70;6.50;;;;;;;;;;5066306;28;20053;-61
2023/01/23 12:53:34;;;;;;;10.53;6.70;;;;;;;;;;5067778;28;20482;-62
2023/01/23 12:56:07;;;;;;;12.13;6.60;;;;;;;;;;5068355;28;20567;-61
2023/01/23 12:58:34;;;;;;;9.53;6.87;;;;;;;;;;5050531;28;20734;-61
2023/01/23 13:01:00;;;;;;;9.07;6.20;;;;;;;;;;5065277;28;20037;-61
2023/01/23 13:03:26;;;;;;;10.50;6.73;;;;;;;;;;5057571;28;20441;-61
2023/01/23 13:06:04;;;;;;;8.60;6.23;;;;;;;;;;5049859;28;20064;-61
2023/01/23 13:08:48;;;;;;;9.47;6.33;;;;;;;;;;5051559;28;20454;-61
2023/01/23 13:14:15;;;;;;;10.17;6.67;;;;;;;;;;5065944;28;20132;-61
2023/01/23 13:16:46;;;;;;;13.57;6.73;;;;;;;;;;5063221;28;20087;-62
2023/01/23 13:22:20;;;;;;;8.73;7.13;;;;;;;;;;5067861;28;20076;-61
2023/01/23 13:25:11;;;;;;;13.30;6.83;;;;;;;;;;5059195;28;20140;-61
2023/01/23 13:27:40;;;;;;;10.90;6.80;;;;;;;;;;5049689;28;20057;-61
2023/01/23 13:30:25;;;;;;;9.33;6.50;;;;;;;;;;5068009;28;20577;-62
2023/01/23 13:32:59;;;;;;;8.87;6.37;;;;;;;;;;5062482;28;20159;-61
2023/01/23 13:35:48;;;;;;;9.37;7.03;;;;;;;;;;5059700;28;20505;-61
2023/01/23 13:38:29;;;;;;;10.77;7.00;;;;;;;;;;5064500;28;20514;-61
2023/01/23 13:41:04;;;;;;;10.23;6.93;;;;;;;;;;5058949;28;20048;-61
2023/01/23 13:43:48;;;;;;;11.10;6.30;;;;;;;;;;5048319;28;20064;-61
2023/01/23 13:46:25;;;;;;;10.30;6.43;;;;;;;;;;5057964;28;20056;-61
2023/01/23 13:51:41;;;;;;;9.80;6.63;;;;;;;;;;5061726;28;20045;-61
2023/01/23 13:57:01;;;;;;;10.53;6.60;;;;;;;;;;5066290;28;20242;-61
2023/01/23 13:59:31;;;;;;;10.83;7.10;;;;;;;;;;5068613;28;20101;-61
2023/01/23 14:05:12;;;;;;;10.17;7.30;;;;;;;;;;5062041;28;20048;-61
2023/01/23 14:07:54;;;;;;;10.00;7.13;;;;;;;;;;5060131;28;20044;-61
2023/01/23 14:10:23;;;;;;;13.17;7.97;;;;;;;;;;5059995;28;20393;-61
2023/01/23 14:12:50;;;;;;;10.00;6.97;;;;;;;;;;5060540;28;20040;-61
2023/01/23 14:18:13;;;;;;;11.00;8.17;;;;;;;;;;5066663;28;20048;-61
2023/01/23 14:20:39;;;;;;;10.97;7.67;;;;;;;;;;5066584;28;20460;-61
2023/01/23 14:23:15;;;;;;;9.93;7.00;;;;;;;;;;5066176;28;20040;-61
2023/01/23 14:25:42;;;;;;;10.27;7.20;;;;;;;;;;5067341;28;20497;-61
2023/01/23 14:28:14;;;;;;;10.97;7.13;;;;;;;;;;5066248;28;20062;-61
2023/01/23 14:30:40;;;;;;;12.48;8.63;;;;;;;;;;5054804;28;20044;-61
2023/01/23 14:33:17;;;;;;;14.57;8.43;;;;;;;;;;5064137;28;20465;-61
2023/01/23 14:35:43;;;;;;;12.03;8.47;;;;;;;;;;5066951;28;20119;-61
2023/01/23 14:38:15;;;;;;;12.60;8.80;;;;;;;;;;5047681;28;20059;-61
2023/01/23 14:40:44;;;;;;;14.07;8.43;;;;;;;;;;5066596;28;20596;-61
2023/01/23 14:43:15;;;;;;;14.17;8.20;;;;;;;;;;5061968;28;20043;-61
2023/01/23 14:45:46;;;;;;;12.70;7.93;;;;;;;;;;5057877;28;20044;-61
2023/01/23 14:48:14;;;;;;;14.93;9.53;;;;;;;;;;5049817;28;20062;-61
2023/01/23 14:50:41;;;;;;;11.73;8.77;;;;;;;;;;5048893;28;20049;-61
2023/01/23 14:53:12;;;;;;;14.77;8.93;;;;;;;;;;5051307;28;20080;-61
2023/01/23 14:55:39;;;;;;;11.93;9.03;;;;;;;;;;5073292;28;20048;-61